sensor_id;sensor_type;location;lat;lon;timestamp;P1;durP1;ratioP1;P2;durP2;ratioP2
2213;SDS011;1113;42.018;23.986;2023-02-15T00:00:54;96.85;;;48.30;;
2213;SDS011;1113;42.018;23.986;2023-02-15T00:03:31;76.50;;;40.90;;
2213;SDS011;1113;42.018;23.986;2023-02-15T00:05:58;81.30;;;43.78;;
2213;SDS011;1113;42.018;23.986;2023-02-15T00:08:25;78.28;;;43.17;;
2213;SDS011;1113;42.018;23.986;2023-02-15T00:10:52;82.35;;;41.17;;
2213;SDS011;1113;42.018;23.986;2023-02-15T00:13:20;86.57;;;43.67;;
2213;SDS011;1113;42.018;23.986;2023-02-15T00:15:47;76.70;;;41.40;;
2213;SDS011;1113;42.018;23.986;2023-02-15T00:18:13;75.45;;;39.50;;
2213;SDS011;1113;42.018;23.986;2023-02-15T00:20:40;71.82;;;37.10;;
2213;SDS011;1113;42.018;23.986;2023-02-15T00:23:07;74.20;;;35.90;;
2213;SDS011;1113;42.018;23.986;2023-02-15T00:25:34;72.80;;;36.00;;
2213;SDS011;1113;42.018;23.986;2023-02-15T00:28:00;71.15;;;37.60;;
2213;SDS011;1113;42.018;23.986;2023-02-15T00:30:29;73.88;;;38.15;;
2213;SDS011;1113;42.018;23.986;2023-02-15T00:32:55;63.90;;;35.63;;
2213;SDS011;1113;42.018;23.986;2023-02-15T00:35:22;64.00;;;37.00;;
2213;SDS011;1113;42.018;23.986;2023-02-15T00:37:49;63.45;;;33.10;;
2213;SDS011;1113;42.018;23.986;2023-02-15T00:40:17;55.95;;;31.20;;
2213;SDS011;1113;42.018;23.986;2023-02-15T00:42:44;55.78;;;32.20;;
2213;SDS011;1113;42.018;23.986;2023-02-15T00:45:11;63.65;;;33.50;;
2213;SDS011;1113;42.018;23.986;2023-02-15T00:47:39;61.65;;;31.92;;
2213;SDS011;1113;42.018;23.986;2023-02-15T00:50:06;70.32;;;36.10;;
2213;SDS011;1113;42.018;23.986;2023-02-15T00:52:33;51.50;;;31.65;;
2213;SDS011;1113;42.018;23.986;2023-02-15T00:55:00;67.10;;;32.47;;
2213;SDS011;1113;42.018;23.986;2023-02-15T00:57:27;55.30;;;29.52;;
2213;SDS011;1113;42.018;23.986;2023-02-15T00:59:53;44.58;;;25.60;;
2213;SDS011;1113;42.018;23.986;2023-02-15T01:02:20;55.20;;;28.20;;
2213;SDS011;1113;42.018;23.986;2023-02-15T01:04:48;42.45;;;24.60;;
2213;SDS011;1113;42.018;23.986;2023-02-15T01:07:15;53.40;;;26.88;;
2213;SDS011;1113;42.018;23.986;2023-02-15T01:09:42;52.15;;;29.10;;
2213;SDS011;1113;42.018;23.986;2023-02-15T01:12:09;44.85;;;26.00;;
2213;SDS011;1113;42.018;23.986;2023-02-15T01:14:35;42.45;;;23.70;;
2213;SDS011;1113;42.018;23.986;2023-02-15T01:17:02;31.25;;;19.98;;
2213;SDS011;1113;42.018;23.986;2023-02-15T01:19:29;50.35;;;23.60;;
2213;SDS011;1113;42.018;23.986;2023-02-15T01:21:57;39.33;;;22.42;;
2213;SDS011;1113;42.018;23.986;2023-02-15T01:24:24;41.25;;;22.55;;
2213;SDS011;1113;42.018;23.986;2023-02-15T01:26:51;45.33;;;25.25;;
2213;SDS011;1113;42.018;23.986;2023-02-15T01:29:18;39.03;;;23.42;;
2213;SDS011;1113;42.018;23.986;2023-02-15T01:31:45;39.55;;;22.75;;
2213;SDS011;1113;42.018;23.986;2023-02-15T01:34:11;42.40;;;24.00;;
2213;SDS011;1113;42.018;23.986;2023-02-15T01:36:38;36.92;;;21.77;;
2213;SDS011;1113;42.018;23.986;2023-02-15T01:39:06;46.47;;;27.25;;
2213;SDS011;1113;42.018;23.986;2023-02-15T01:41:35;48.20;;;25.30;;
2213;SDS011;1113;42.018;23.986;2023-02-15T01:44:02;57.08;;;29.58;;
2213;SDS011;1113;42.018;23.986;2023-02-15T01:46:30;40.65;;;22.63;;
2213;SDS011;1113;42.018;23.986;2023-02-15T01:49:02;49.25;;;25.02;;
2213;SDS011;1113;42.018;23.986;2023-02-15T01:51:36;52.58;;;28.23;;
2213;SDS011;1113;42.018;23.986;2023-02-15T01:54:09;45.47;;;25.98;;
2213;SDS011;1113;42.018;23.986;2023-02-15T01:56:39;56.70;;;28.00;;
2213;SDS011;1113;42.018;23.986;2023-02-15T01:59:09;46.95;;;28.38;;
2213;SDS011;1113;42.018;23.986;2023-02-15T02:01:41;46.75;;;26.60;;
2213;SDS011;1113;42.018;23.986;2023-02-15T02:04:09;52.45;;;28.00;;
2213;SDS011;1113;42.018;23.986;2023-02-15T02:06:42;41.35;;;22.35;;
2213;SDS011;1113;42.018;23.986;2023-02-15T02:09:14;38.67;;;20.80;;
2213;SDS011;1113;42.018;23.986;2023-02-15T02:11:41;41.67;;;23.00;;
2213;SDS011;1113;42.018;23.986;2023-02-15T02:14:11;56.42;;;26.50;;
2213;SDS011;1113;42.018;23.986;2023-02-15T02:16:40;49.90;;;28.10;;
2213;SDS011;1113;42.018;23.986;2023-02-15T02:19:29;48.72;;;29.27;;
2213;SDS011;1113;42.018;23.986;2023-02-15T02:22:27;53.85;;;28.60;;
2213;SDS011;1113;42.018;23.986;2023-02-15T02:25:24;44.58;;;23.60;;
2213;SDS011;1113;42.018;23.986;2023-02-15T02:28:14;45.60;;;24.67;;
2213;SDS011;1113;42.018;23.986;2023-02-15T02:31:19;46.17;;;23.60;;
2213;SDS011;1113;42.018;23.986;2023-02-15T02:34:03;35.85;;;19.45;;
2213;SDS011;1113;42.018;23.986;2023-02-15T02:36:37;34.45;;;18.63;;
2213;SDS011;1113;42.018;23.986;2023-02-15T02:39:13;39.15;;;22.02;;
2213;SDS011;1113;42.018;23.986;2023-02-15T02:41:51;30.60;;;18.20;;
2213;SDS011;1113;42.018;23.986;2023-02-15T02:44:25;33.72;;;20.67;;
2213;SDS011;1113;42.018;23.986;2023-02-15T02:46:57;34.25;;;18.80;;
2213;SDS011;1113;42.018;23.986;2023-02-15T02:49:35;34.95;;;18.40;;
2213;SDS011;1113;42.018;23.986;2023-02-15T02:52:04;36.33;;;21.35;;
2213;SDS011;1113;42.018;23.986;2023-02-15T02:54:34;36.75;;;19.90;;
2213;SDS011;1113;42.018;23.986;2023-02-15T02:57:03;43.05;;;24.73;;
2213;SDS011;1113;42.018;23.986;2023-02-15T02:59:35;39.38;;;23.08;;
2213;SDS011;1113;42.018;23.986;2023-02-15T03:02:05;59.17;;;30.70;;
2213;SDS011;1113;42.018;23.986;2023-02-15T03:04:39;66.25;;;31.38;;
2213;SDS011;1113;42.018;23.986;2023-02-15T03:07:11;60.70;;;31.38;;
2213;SDS011;1113;42.018;23.986;2023-02-15T03:09:41;51.03;;;28.30;;
2213;SDS011;1113;42.018;23.986;2023-02-15T03:12:13;44.50;;;22.23;;
2213;SDS011;1113;42.018;23.986;2023-02-15T03:14:42;40.72;;;23.33;;
2213;SDS011;1113;42.018;23.986;2023-02-15T03:17:13;37.97;;;19.85;;
2213;SDS011;1113;42.018;23.986;2023-02-15T03:19:44;38.08;;;21.20;;
2213;SDS011;1113;42.018;23.986;2023-02-15T03:22:14;46.15;;;22.48;;
2213;SDS011;1113;42.018;23.986;2023-02-15T03:24:46;44.08;;;25.95;;
2213;SDS011;1113;42.018;23.986;2023-02-15T03:27:20;92.00;;;39.40;;
2213;SDS011;1113;42.018;23.986;2023-02-15T03:29:51;143.95;;;55.92;;
2213;SDS011;1113;42.018;23.986;2023-02-15T03:32:23;49.80;;;25.15;;
2213;SDS011;1113;42.018;23.986;2023-02-15T03:34:53;55.75;;;25.30;;
2213;SDS011;1113;42.018;23.986;2023-02-15T03:37:22;39.45;;;21.38;;
2213;SDS011;1113;42.018;23.986;2023-02-15T03:39:53;37.63;;;19.95;;
2213;SDS011;1113;42.018;23.986;2023-02-15T03:42:43;30.48;;;17.10;;
2213;SDS011;1113;42.018;23.986;2023-02-15T03:45:14;34.40;;;19.40;;
2213;SDS011;1113;42.018;23.986;2023-02-15T03:47:46;35.40;;;20.50;;
2213;SDS011;1113;42.018;23.986;2023-02-15T03:50:18;35.03;;;22.38;;
2213;SDS011;1113;42.018;23.986;2023-02-15T03:53:07;56.72;;;27.23;;
2213;SDS011;1113;42.018;23.986;2023-02-15T03:55:38;34.45;;;22.15;;
2213;SDS011;1113;42.018;23.986;2023-02-15T03:58:05;32.17;;;20.80;;
2213;SDS011;1113;42.018;23.986;2023-02-15T04:00:51;31.13;;;19.42;;
2213;SDS011;1113;42.018;23.986;2023-02-15T04:03:41;36.47;;;19.50;;
2213;SDS011;1113;42.018;23.986;2023-02-15T04:06:13;42.50;;;21.27;;
2213;SDS011;1113;42.018;23.986;2023-02-15T04:08:40;41.05;;;22.70;;
2213;SDS011;1113;42.018;23.986;2023-02-15T04:11:24;37.10;;;20.83;;
2213;SDS011;1113;42.018;23.986;2023-02-15T04:13:51;41.50;;;21.67;;
2213;SDS011;1113;42.018;23.986;2023-02-15T04:16:21;42.45;;;23.08;;
2213;SDS011;1113;42.018;23.986;2023-02-15T04:18:47;34.20;;;21.57;;
2213;SDS011;1113;42.018;23.986;2023-02-15T04:21:33;32.50;;;18.77;;
2213;SDS011;1113;42.018;23.986;2023-02-15T04:24:21;34.88;;;19.48;;
2213;SDS011;1113;42.018;23.986;2023-02-15T04:27:06;28.33;;;16.42;;
2213;SDS011;1113;42.018;23.986;2023-02-15T04:29:32;43.67;;;24.10;;
2213;SDS011;1113;42.018;23.986;2023-02-15T04:32:00;50.05;;;27.33;;
2213;SDS011;1113;42.018;23.986;2023-02-15T04:34:30;41.88;;;23.98;;
2213;SDS011;1113;42.018;23.986;2023-02-15T04:36:58;36.13;;;21.55;;
2213;SDS011;1113;42.018;23.986;2023-02-15T04:39:25;40.38;;;23.58;;
2213;SDS011;1113;42.018;23.986;2023-02-15T04:41:52;38.45;;;22.55;;
2213;SDS011;1113;42.018;23.986;2023-02-15T04:44:18;51.83;;;28.83;;
2213;SDS011;1113;42.018;23.986;2023-02-15T04:46:45;79.13;;;39.00;;
2213;SDS011;1113;42.018;23.986;2023-02-15T04:49:12;54.83;;;28.30;;
2213;SDS011;1113;42.018;23.986;2023-02-15T04:51:39;68.35;;;31.90;;
2213;SDS011;1113;42.018;23.986;2023-02-15T04:54:07;46.40;;;27.05;;
2213;SDS011;1113;42.018;23.986;2023-02-15T04:56:34;45.05;;;25.25;;
2213;SDS011;1113;42.018;23.986;2023-02-15T04:59:02;47.22;;;27.15;;
2213;SDS011;1113;42.018;23.986;2023-02-15T05:01:29;52.78;;;28.50;;
2213;SDS011;1113;42.018;23.986;2023-02-15T05:03:56;59.80;;;32.28;;
2213;SDS011;1113;42.018;23.986;2023-02-15T05:06:23;61.33;;;37.55;;
2213;SDS011;1113;42.018;23.986;2023-02-15T05:08:49;54.92;;;30.75;;
2213;SDS011;1113;42.018;23.986;2023-02-15T05:11:18;74.80;;;37.85;;
2213;SDS011;1113;42.018;23.986;2023-02-15T05:13:44;55.35;;;27.95;;
2213;SDS011;1113;42.018;23.986;2023-02-15T05:16:11;66.53;;;35.13;;
2213;SDS011;1113;42.018;23.986;2023-02-15T05:18:38;92.93;;;43.67;;
2213;SDS011;1113;42.018;23.986;2023-02-15T05:21:05;101.70;;;46.60;;
2213;SDS011;1113;42.018;23.986;2023-02-15T05:23:31;103.57;;;50.05;;
2213;SDS011;1113;42.018;23.986;2023-02-15T05:25:58;106.30;;;51.63;;
2213;SDS011;1113;42.018;23.986;2023-02-15T05:28:43;91.45;;;48.95;;
2213;SDS011;1113;42.018;23.986;2023-02-15T05:31:11;108.40;;;50.75;;
2213;SDS011;1113;42.018;23.986;2023-02-15T05:33:39;83.38;;;39.67;;
2213;SDS011;1113;42.018;23.986;2023-02-15T05:36:07;88.93;;;49.30;;
2213;SDS011;1113;42.018;23.986;2023-02-15T05:38:34;110.75;;;51.85;;
2213;SDS011;1113;42.018;23.986;2023-02-15T05:41:02;108.18;;;55.30;;
2213;SDS011;1113;42.018;23.986;2023-02-15T05:43:29;207.40;;;94.63;;
2213;SDS011;1113;42.018;23.986;2023-02-15T05:45:58;147.18;;;70.13;;
2213;SDS011;1113;42.018;23.986;2023-02-15T05:48:25;102.63;;;54.00;;
2213;SDS011;1113;42.018;23.986;2023-02-15T05:50:59;110.10;;;55.10;;
2213;SDS011;1113;42.018;23.986;2023-02-15T05:53:27;112.35;;;55.17;;
2213;SDS011;1113;42.018;23.986;2023-02-15T05:55:54;96.68;;;49.88;;
2213;SDS011;1113;42.018;23.986;2023-02-15T05:58:24;104.30;;;52.53;;
2213;SDS011;1113;42.018;23.986;2023-02-15T06:00:58;116.40;;;54.55;;
2213;SDS011;1113;42.018;23.986;2023-02-15T06:03:25;97.47;;;50.95;;
2213;SDS011;1113;42.018;23.986;2023-02-15T06:05:53;108.75;;;53.53;;
2213;SDS011;1113;42.018;23.986;2023-02-15T06:08:20;125.72;;;61.10;;
2213;SDS011;1113;42.018;23.986;2023-02-15T06:10:47;134.45;;;63.95;;
2213;SDS011;1113;42.018;23.986;2023-02-15T06:13:14;127.15;;;67.35;;
2213;SDS011;1113;42.018;23.986;2023-02-15T06:15:40;152.73;;;79.75;;
2213;SDS011;1113;42.018;23.986;2023-02-15T06:18:09;145.27;;;74.38;;
2213;SDS011;1113;42.018;23.986;2023-02-15T06:20:35;175.90;;;75.40;;
2213;SDS011;1113;42.018;23.986;2023-02-15T06:23:02;166.75;;;79.38;;
2213;SDS011;1113;42.018;23.986;2023-02-15T06:25:29;151.95;;;83.93;;
2213;SDS011;1113;42.018;23.986;2023-02-15T06:27:56;173.85;;;89.63;;
2213;SDS011;1113;42.018;23.986;2023-02-15T06:30:22;141.65;;;74.00;;
2213;SDS011;1113;42.018;23.986;2023-02-15T06:32:49;139.73;;;64.63;;
2213;SDS011;1113;42.018;23.986;2023-02-15T06:35:17;109.30;;;57.42;;
2213;SDS011;1113;42.018;23.986;2023-02-15T06:37:45;102.40;;;54.58;;
2213;SDS011;1113;42.018;23.986;2023-02-15T06:40:12;101.18;;;53.70;;
2213;SDS011;1113;42.018;23.986;2023-02-15T06:42:39;85.60;;;48.88;;
2213;SDS011;1113;42.018;23.986;2023-02-15T06:45:07;78.85;;;46.05;;
2213;SDS011;1113;42.018;23.986;2023-02-15T06:47:35;84.88;;;46.63;;
2213;SDS011;1113;42.018;23.986;2023-02-15T06:50:02;96.93;;;53.20;;
2213;SDS011;1113;42.018;23.986;2023-02-15T06:52:31;88.90;;;50.03;;
2213;SDS011;1113;42.018;23.986;2023-02-15T06:54:58;86.07;;;46.05;;
2213;SDS011;1113;42.018;23.986;2023-02-15T06:57:25;87.60;;;45.85;;
2213;SDS011;1113;42.018;23.986;2023-02-15T06:59:52;100.10;;;53.15;;
2213;SDS011;1113;42.018;23.986;2023-02-15T07:02:19;98.13;;;51.42;;
2213;SDS011;1113;42.018;23.986;2023-02-15T07:04:45;110.05;;;57.80;;
2213;SDS011;1113;42.018;23.986;2023-02-15T07:07:12;142.02;;;72.72;;
2213;SDS011;1113;42.018;23.986;2023-02-15T07:09:40;106.43;;;57.90;;
2213;SDS011;1113;42.018;23.986;2023-02-15T07:12:07;99.22;;;55.08;;
2213;SDS011;1113;42.018;23.986;2023-02-15T07:15:04;78.70;;;46.03;;
2213;SDS011;1113;42.018;23.986;2023-02-15T07:17:32;101.80;;;56.05;;
2213;SDS011;1113;42.018;23.986;2023-02-15T07:19:59;104.97;;;60.28;;
2213;SDS011;1113;42.018;23.986;2023-02-15T07:22:26;118.60;;;62.70;;
2213;SDS011;1113;42.018;23.986;2023-02-15T07:24:55;74.28;;;45.15;;
2213;SDS011;1113;42.018;23.986;2023-02-15T07:27:22;71.00;;;46.53;;
2213;SDS011;1113;42.018;23.986;2023-02-15T07:29:48;67.30;;;43.60;;
2213;SDS011;1113;42.018;23.986;2023-02-15T07:32:15;78.80;;;43.88;;
2213;SDS011;1113;42.018;23.986;2023-02-15T07:34:42;63.80;;;39.15;;
2213;SDS011;1113;42.018;23.986;2023-02-15T07:37:09;59.85;;;37.55;;
2213;SDS011;1113;42.018;23.986;2023-02-15T07:39:36;59.53;;;37.13;;
2213;SDS011;1113;42.018;23.986;2023-02-15T07:42:04;59.60;;;34.78;;
2213;SDS011;1113;42.018;23.986;2023-02-15T07:44:30;67.55;;;40.05;;
2213;SDS011;1113;42.018;23.986;2023-02-15T07:46:57;179.45;;;99.47;;
2213;SDS011;1113;42.018;23.986;2023-02-15T07:49:24;171.85;;;94.50;;
2213;SDS011;1113;42.018;23.986;2023-02-15T07:51:51;138.65;;;69.03;;
2213;SDS011;1113;42.018;23.986;2023-02-15T07:54:18;91.97;;;51.67;;
2213;SDS011;1113;42.018;23.986;2023-02-15T07:56:45;92.32;;;52.95;;
2213;SDS011;1113;42.018;23.986;2023-02-15T07:59:13;85.55;;;49.65;;
2213;SDS011;1113;42.018;23.986;2023-02-15T08:01:40;87.72;;;49.10;;
2213;SDS011;1113;42.018;23.986;2023-02-15T08:04:07;86.43;;;49.63;;
2213;SDS011;1113;42.018;23.986;2023-02-15T08:06:36;94.40;;;53.35;;
2213;SDS011;1113;42.018;23.986;2023-02-15T08:09:04;83.38;;;50.42;;
2213;SDS011;1113;42.018;23.986;2023-02-15T08:11:31;85.88;;;52.90;;
2213;SDS011;1113;42.018;23.986;2023-02-15T08:14:02;86.72;;;47.67;;
2213;SDS011;1113;42.018;23.986;2023-02-15T08:19:18;81.95;;;50.65;;
2213;SDS011;1113;42.018;23.986;2023-02-15T08:21:50;93.50;;;52.92;;
2213;SDS011;1113;42.018;23.986;2023-02-15T08:24:20;77.10;;;44.60;;
2213;SDS011;1113;42.018;23.986;2023-02-15T08:26:47;61.80;;;38.70;;
2213;SDS011;1113;42.018;23.986;2023-02-15T08:29:16;64.10;;;38.22;;
2213;SDS011;1113;42.018;23.986;2023-02-15T08:31:44;60.85;;;36.28;;
2213;SDS011;1113;42.018;23.986;2023-02-15T08:34:14;58.30;;;35.47;;
2213;SDS011;1113;42.018;23.986;2023-02-15T08:36:43;47.85;;;30.63;;
2213;SDS011;1113;42.018;23.986;2023-02-15T08:39:11;46.50;;;30.27;;
2213;SDS011;1113;42.018;23.986;2023-02-15T08:41:39;36.97;;;23.33;;
2213;SDS011;1113;42.018;23.986;2023-02-15T08:44:08;33.47;;;23.45;;
2213;SDS011;1113;42.018;23.986;2023-02-15T08:46:36;38.50;;;25.60;;
2213;SDS011;1113;42.018;23.986;2023-02-15T08:49:04;37.78;;;24.95;;
2213;SDS011;1113;42.018;23.986;2023-02-15T08:51:33;29.75;;;19.95;;
2213;SDS011;1113;42.018;23.986;2023-02-15T08:54:01;26.95;;;19.20;;
2213;SDS011;1113;42.018;23.986;2023-02-15T08:56:32;31.02;;;21.75;;
2213;SDS011;1113;42.018;23.986;2023-02-15T08:59:00;32.45;;;21.98;;
2213;SDS011;1113;42.018;23.986;2023-02-15T09:01:30;31.33;;;20.95;;
2213;SDS011;1113;42.018;23.986;2023-02-15T09:03:59;31.77;;;20.30;;
2213;SDS011;1113;42.018;23.986;2023-02-15T09:06:29;32.47;;;21.13;;
2213;SDS011;1113;42.018;23.986;2023-02-15T09:08:58;29.92;;;18.48;;
2213;SDS011;1113;42.018;23.986;2023-02-15T09:11:25;30.88;;;19.55;;
2213;SDS011;1113;42.018;23.986;2023-02-15T09:13:54;29.92;;;21.20;;
2213;SDS011;1113;42.018;23.986;2023-02-15T09:16:22;31.35;;;19.25;;
2213;SDS011;1113;42.018;23.986;2023-02-15T09:18:50;33.60;;;23.48;;
2213;SDS011;1113;42.018;23.986;2023-02-15T09:21:18;31.90;;;20.08;;
2213;SDS011;1113;42.018;23.986;2023-02-15T09:23:48;32.50;;;19.90;;
2213;SDS011;1113;42.018;23.986;2023-02-15T09:26:17;24.13;;;16.05;;
2213;SDS011;1113;42.018;23.986;2023-02-15T09:28:45;22.95;;;14.73;;
2213;SDS011;1113;42.018;23.986;2023-02-15T09:31:14;18.67;;;13.85;;
2213;SDS011;1113;42.018;23.986;2023-02-15T09:33:42;24.20;;;15.55;;
2213;SDS011;1113;42.018;23.986;2023-02-15T09:36:14;24.95;;;15.93;;
2213;SDS011;1113;42.018;23.986;2023-02-15T09:38:42;25.80;;;16.70;;
2213;SDS011;1113;42.018;23.986;2023-02-15T09:41:14;30.17;;;19.30;;
2213;SDS011;1113;42.018;23.986;2023-02-15T09:43:54;20.60;;;14.10;;
2213;SDS011;1113;42.018;23.986;2023-02-15T09:46:39;29.93;;;16.30;;
2213;SDS011;1113;42.018;23.986;2023-02-15T09:49:22;16.03;;;10.57;;
2213;SDS011;1113;42.018;23.986;2023-02-15T09:52:06;18.50;;;12.30;;
2213;SDS011;1113;42.018;23.986;2023-02-15T09:54:51;15.63;;;12.00;;
2213;SDS011;1113;42.018;23.986;2023-02-15T09:57:31;18.67;;;13.20;;
2213;SDS011;1113;42.018;23.986;2023-02-15T10:00:05;23.47;;;16.50;;
2213;SDS011;1113;42.018;23.986;2023-02-15T10:02:41;20.60;;;14.47;;
2213;SDS011;1113;42.018;23.986;2023-02-15T10:05:23;20.67;;;14.50;;
2213;SDS011;1113;42.018;23.986;2023-02-15T10:11:01;15.13;;;10.60;;
2213;SDS011;1113;42.018;23.986;2023-02-15T10:13:52;27.77;;;14.03;;
2213;SDS011;1113;42.018;23.986;2023-02-15T10:16:28;24.00;;;15.47;;
2213;SDS011;1113;42.018;23.986;2023-02-15T10:19:08;20.53;;;14.47;;
2213;SDS011;1113;42.018;23.986;2023-02-15T10:21:45;21.00;;;13.70;;
2213;SDS011;1113;42.018;23.986;2023-02-15T10:24:35;21.23;;;15.80;;
2213;SDS011;1113;42.018;23.986;2023-02-15T10:27:18;28.20;;;18.80;;
2213;SDS011;1113;42.018;23.986;2023-02-15T10:29:48;23.83;;;17.07;;
2213;SDS011;1113;42.018;23.986;2023-02-15T10:32:30;24.50;;;16.10;;
2213;SDS011;1113;42.018;23.986;2023-02-15T10:35:04;21.67;;;16.20;;
2213;SDS011;1113;42.018;23.986;2023-02-15T10:40:40;24.17;;;16.80;;
2213;SDS011;1113;42.018;23.986;2023-02-15T10:43:46;19.50;;;13.00;;
2213;SDS011;1113;42.018;23.986;2023-02-15T10:46:28;16.10;;;11.80;;
2213;SDS011;1113;42.018;23.986;2023-02-15T10:49:14;15.50;;;10.27;;
2213;SDS011;1113;42.018;23.986;2023-02-15T10:51:53;15.43;;;10.40;;
2213;SDS011;1113;42.018;23.986;2023-02-15T10:54:33;12.93;;;10.17;;
2213;SDS011;1113;42.018;23.986;2023-02-15T10:57:10;15.23;;;9.70;;
2213;SDS011;1113;42.018;23.986;2023-02-15T10:59:49;14.37;;;9.67;;
2213;SDS011;1113;42.018;23.986;2023-02-15T11:02:30;11.67;;;8.30;;
2213;SDS011;1113;42.018;23.986;2023-02-15T11:05:16;15.17;;;10.07;;
2213;SDS011;1113;42.018;23.986;2023-02-15T11:07:54;13.27;;;9.00;;
2213;SDS011;1113;42.018;23.986;2023-02-15T11:10:26;12.90;;;9.47;;
2213;SDS011;1113;42.018;23.986;2023-02-15T11:12:57;15.20;;;10.03;;
2213;SDS011;1113;42.018;23.986;2023-02-15T11:15:30;12.60;;;7.90;;
2213;SDS011;1113;42.018;23.986;2023-02-15T11:18:02;18.27;;;11.10;;
2213;SDS011;1113;42.018;23.986;2023-02-15T11:20:36;11.27;;;8.33;;
2213;SDS011;1113;42.018;23.986;2023-02-15T11:23:10;19.03;;;11.10;;
2213;SDS011;1113;42.018;23.986;2023-02-15T11:25:41;9.60;;;7.80;;
2213;SDS011;1113;42.018;23.986;2023-02-15T11:28:13;30.43;;;17.40;;
2213;SDS011;1113;42.018;23.986;2023-02-15T11:30:49;18.93;;;13.20;;
2213;SDS011;1113;42.018;23.986;2023-02-15T11:33:21;16.53;;;10.60;;
2213;SDS011;1113;42.018;23.986;2023-02-15T11:35:53;15.30;;;10.13;;
2213;SDS011;1113;42.018;23.986;2023-02-15T11:38:27;11.23;;;8.60;;
2213;SDS011;1113;42.018;23.986;2023-02-15T11:40:58;16.83;;;12.33;;
2213;SDS011;1113;42.018;23.986;2023-02-15T11:43:31;14.30;;;9.53;;
2213;SDS011;1113;42.018;23.986;2023-02-15T11:46:03;22.77;;;14.80;;
2213;SDS011;1113;42.018;23.986;2023-02-15T11:48:32;16.07;;;7.30;;
2213;SDS011;1113;42.018;23.986;2023-02-15T11:50:59;14.13;;;9.33;;
2213;SDS011;1113;42.018;23.986;2023-02-15T11:53:28;11.17;;;8.33;;
2213;SDS011;1113;42.018;23.986;2023-02-15T11:55:59;12.33;;;9.20;;
2213;SDS011;1113;42.018;23.986;2023-02-15T11:58:29;11.00;;;7.73;;
2213;SDS011;1113;42.018;23.986;2023-02-15T12:01:00;14.00;;;9.13;;
2213;SDS011;1113;42.018;23.986;2023-02-15T12:03:40;16.83;;;11.10;;
2213;SDS011;1113;42.018;23.986;2023-02-15T12:06:16;14.83;;;9.80;;
2213;SDS011;1113;42.018;23.986;2023-02-15T12:08:48;13.87;;;10.07;;
2213;SDS011;1113;42.018;23.986;2023-02-15T12:11:22;13.43;;;8.70;;
2213;SDS011;1113;42.018;23.986;2023-02-15T12:13:54;11.60;;;9.00;;
2213;SDS011;1113;42.018;23.986;2023-02-15T12:16:23;11.27;;;8.80;;
2213;SDS011;1113;42.018;23.986;2023-02-15T12:18:51;12.80;;;8.03;;
2213;SDS011;1113;42.018;23.986;2023-02-15T12:21:25;9.47;;;8.30;;
2213;SDS011;1113;42.018;23.986;2023-02-15T12:23:56;9.63;;;6.97;;
2213;SDS011;1113;42.018;23.986;2023-02-15T12:26:34;12.90;;;9.57;;
2213;SDS011;1113;42.018;23.986;2023-02-15T12:29:27;10.37;;;7.50;;
2213;SDS011;1113;42.018;23.986;2023-02-15T12:31:57;9.43;;;8.20;;
2213;SDS011;1113;42.018;23.986;2023-02-15T12:34:32;14.80;;;9.70;;
2213;SDS011;1113;42.018;23.986;2023-02-15T12:37:07;18.07;;;9.23;;
2213;SDS011;1113;42.018;23.986;2023-02-15T12:39:37;9.17;;;6.37;;
2213;SDS011;1113;42.018;23.986;2023-02-15T12:42:18;11.40;;;8.57;;
2213;SDS011;1113;42.018;23.986;2023-02-15T12:44:56;18.00;;;10.37;;
2213;SDS011;1113;42.018;23.986;2023-02-15T12:47:24;13.97;;;10.63;;
2213;SDS011;1113;42.018;23.986;2023-02-15T12:50:10;9.70;;;6.60;;
2213;SDS011;1113;42.018;23.986;2023-02-15T12:52:43;15.77;;;10.10;;
2213;SDS011;1113;42.018;23.986;2023-02-15T12:55:11;12.17;;;9.00;;
2213;SDS011;1113;42.018;23.986;2023-02-15T12:57:46;10.97;;;6.80;;
2213;SDS011;1113;42.018;23.986;2023-02-15T13:00:25;12.70;;;7.90;;
2213;SDS011;1113;42.018;23.986;2023-02-15T13:02:54;14.60;;;8.43;;
2213;SDS011;1113;42.018;23.986;2023-02-15T13:05:26;15.03;;;10.23;;
2213;SDS011;1113;42.018;23.986;2023-02-15T13:07:58;14.90;;;8.43;;
2213;SDS011;1113;42.018;23.986;2023-02-15T13:10:28;17.67;;;12.30;;
2213;SDS011;1113;42.018;23.986;2023-02-15T13:12:57;14.70;;;10.13;;
2213;SDS011;1113;42.018;23.986;2023-02-15T13:15:28;17.33;;;11.63;;
2213;SDS011;1113;42.018;23.986;2023-02-15T13:18:00;40.77;;;17.80;;
2213;SDS011;1113;42.018;23.986;2023-02-15T13:20:30;36.73;;;18.60;;
2213;SDS011;1113;42.018;23.986;2023-02-15T13:22:58;39.10;;;20.10;;
2213;SDS011;1113;42.018;23.986;2023-02-15T13:25:31;23.80;;;15.00;;
2213;SDS011;1113;42.018;23.986;2023-02-15T13:28:05;14.23;;;10.23;;
2213;SDS011;1113;42.018;23.986;2023-02-15T13:30:42;10.47;;;7.30;;
2213;SDS011;1113;42.018;23.986;2023-02-15T13:33:12;12.43;;;8.50;;
2213;SDS011;1113;42.018;23.986;2023-02-15T13:35:46;11.60;;;7.60;;
2213;SDS011;1113;42.018;23.986;2023-02-15T13:38:22;10.53;;;7.90;;
2213;SDS011;1113;42.018;23.986;2023-02-15T13:41:14;10.43;;;7.90;;
2213;SDS011;1113;42.018;23.986;2023-02-15T13:43:47;14.00;;;10.00;;
2213;SDS011;1113;42.018;23.986;2023-02-15T13:46:43;12.37;;;8.80;;
2213;SDS011;1113;42.018;23.986;2023-02-15T13:49:18;17.83;;;11.03;;
2213;SDS011;1113;42.018;23.986;2023-02-15T13:52:01;14.10;;;10.43;;
2213;SDS011;1113;42.018;23.986;2023-02-15T13:54:45;16.40;;;11.47;;
2213;SDS011;1113;42.018;23.986;2023-02-15T13:57:23;16.27;;;11.40;;
2213;SDS011;1113;42.018;23.986;2023-02-15T14:00:10;20.47;;;13.63;;
2213;SDS011;1113;42.018;23.986;2023-02-15T14:02:54;14.73;;;8.97;;
2213;SDS011;1113;42.018;23.986;2023-02-15T14:05:46;16.10;;;10.57;;
2213;SDS011;1113;42.018;23.986;2023-02-15T14:08:27;16.43;;;9.67;;
2213;SDS011;1113;42.018;23.986;2023-02-15T14:11:07;17.70;;;12.37;;
2213;SDS011;1113;42.018;23.986;2023-02-15T14:13:47;15.57;;;10.30;;
2213;SDS011;1113;42.018;23.986;2023-02-15T14:16:35;16.40;;;10.40;;
2213;SDS011;1113;42.018;23.986;2023-02-15T14:19:15;13.07;;;9.67;;
2213;SDS011;1113;42.018;23.986;2023-02-15T14:21:48;12.57;;;9.83;;
2213;SDS011;1113;42.018;23.986;2023-02-15T14:24:26;14.93;;;11.83;;
2213;SDS011;1113;42.018;23.986;2023-02-15T14:27:03;10.93;;;9.37;;
2213;SDS011;1113;42.018;23.986;2023-02-15T14:29:45;11.17;;;9.80;;
2213;SDS011;1113;42.018;23.986;2023-02-15T14:32:17;17.30;;;12.13;;
2213;SDS011;1113;42.018;23.986;2023-02-15T14:34:50;15.10;;;13.27;;
2213;SDS011;1113;42.018;23.986;2023-02-15T14:37:22;14.70;;;11.03;;
2213;SDS011;1113;42.018;23.986;2023-02-15T14:40:00;16.70;;;13.33;;
2213;SDS011;1113;42.018;23.986;2023-02-15T14:42:51;16.10;;;13.37;;
2213;SDS011;1113;42.018;23.986;2023-02-15T14:45:25;18.03;;;12.93;;
2213;SDS011;1113;42.018;23.986;2023-02-15T14:47:57;16.27;;;11.70;;
2213;SDS011;1113;42.018;23.986;2023-02-15T14:53:33;16.90;;;13.13;;
2213;SDS011;1113;42.018;23.986;2023-02-15T14:56:19;19.03;;;12.83;;
2213;SDS011;1113;42.018;23.986;2023-02-15T15:01:41;17.80;;;12.23;;
2213;SDS011;1113;42.018;23.986;2023-02-15T15:04:21;24.00;;;16.50;;
2213;SDS011;1113;42.018;23.986;2023-02-15T15:06:57;18.17;;;12.50;;
2213;SDS011;1113;42.018;23.986;2023-02-15T15:09:31;21.50;;;17.07;;
2213;SDS011;1113;42.018;23.986;2023-02-15T15:15:05;30.17;;;21.60;;
2213;SDS011;1113;42.018;23.986;2023-02-15T15:20:38;26.50;;;16.67;;
2213;SDS011;1113;42.018;23.986;2023-02-15T15:29:07;22.60;;;13.47;;
2213;SDS011;1113;42.018;23.986;2023-02-15T15:31:41;22.40;;;12.70;;